Terminal Aerodrome Forecast
Issued by NWS Shreveport, LA

Home | Current Version | Previous Version | Text Only | Print | Product List | Glossary On
Versions: 1 2 3 4 5 6 7 8 9 10 11 12 13 14 15 16 17 18 19 20 21 22 23
000
FTUS44 KSHV 240524
TAFSHV
TAF
KSHV 240524Z 2406/2506 17011KT P6SM SCT250
     FM241000 16010KT P6SM OVC015
      TEMPO 2413/2416 16014G22KT BKN025
     FM241600 17016G21KT P6SM BKN050
     FM242100 18020G25KT P6SM VCTS OVC050CB
      TEMPO 2422/2501 VRB25G30KT 1SM +TSRA OVC050CB
     FM250200 19019G24KT P6SM SCT250=

USA.gov is the U.S. government's official web portal to all federal, state and local government web resources and services.